Time;durP1;ratioP1;P1;durP2;ratioP2;P2;SDS_P1;SDS_P2;PMS_P1;PMS_P2;Temp;Humidity;BMP_temperature;BMP_pressure;BME280_temperature;BME280_humidity;BME280_pressure;Samples;Min_cycle;Max_cycle;Signal;HPM_P1;HPM_P2
2021/09/11 00:00:45;;;;;;;2.58;2.45;;;19.30;99.90;;;;;;6135204;23;20448;-91
2021/09/11 00:03:30;;;;;;;2.65;2.30;;;19.30;99.90;;;;;;6114097;23;20384;-93
2021/09/11 00:06:14;;;;;;;2.60;2.40;;;19.30;99.90;;;;;;6152367;23;20436;-92
2021/09/11 00:08:58;;;;;;;2.00;1.90;;;19.30;99.90;;;;;;6153335;23;20380;-92
2021/09/11 00:11:45;;;;;;;2.40;2.20;;;19.40;99.90;;;;;;6153346;23;20437;-89
2021/09/11 00:14:30;;;;;;;2.60;2.40;;;19.30;99.90;;;;;;6151483;23;20404;-92
2021/09/11 00:17:14;;;;;;;2.70;2.50;;;19.20;99.90;;;;;;6171821;23;20365;-91
2021/09/11 00:19:58;;;;;;;2.33;2.13;;;19.20;99.90;;;;;;6171977;23;20488;-91
2021/09/11 00:22:43;;;;;;;2.42;2.22;;;19.10;99.90;;;;;;6149663;23;20827;-92
2021/09/11 00:25:28;;;;;;;2.35;2.15;;;19.10;99.90;;;;;;6149632;23;20376;-89
2021/09/11 00:28:12;;;;;;;2.17;2.07;;;19.10;99.90;;;;;;6150683;23;20380;-92
2021/09/11 00:30:56;;;;;;;2.17;2.07;;;19.10;99.90;;;;;;6150196;23;20428;-92
2021/09/11 00:33:41;;;;;;;5.80;2.20;;;19.10;99.90;;;;;;6149186;23;20964;-92
2021/09/11 00:36:25;;;;;;;2.95;2.63;;;19.00;99.90;;;;;;6149365;23;20367;-93
2021/09/11 00:39:10;;;;;;;2.78;2.50;;;19.00;99.90;;;;;;6150136;23;20396;-91
2021/09/11 00:41:54;;;;;;;3.85;2.03;;;18.90;99.90;;;;;;6151118;23;20432;-92
2021/09/11 00:44:38;;;;;;;2.42;2.22;;;19.00;99.90;;;;;;6150621;23;20392;-90
2021/09/11 00:47:23;;;;;;;4.37;2.20;;;18.90;99.90;;;;;;6150746;23;20510;-91
2021/09/11 00:50:08;;;;;;;2.50;2.30;;;18.90;99.90;;;;;;6150174;23;20396;-92
2021/09/11 00:52:52;;;;;;;2.60;2.40;;;18.90;99.90;;;;;;6172640;23;20439;-91
2021/09/11 00:55:37;;;;;;;2.40;2.20;;;18.90;99.90;;;;;;6151453;23;20455;-92
2021/09/11 00:58:21;;;;;;;2.00;1.90;;;18.90;99.90;;;;;;6170674;23;20392;-90
2021/09/11 01:01:06;;;;;;;2.45;2.25;;;18.90;99.90;;;;;;6149916;23;20428;-92
2021/09/11 01:03:51;;;;;;;2.47;2.28;;;18.90;99.90;;;;;;6151703;23;20369;-92
2021/09/11 01:06:35;;;;;;;2.65;2.45;;;18.80;99.90;;;;;;6129957;23;20466;-89
2021/09/11 01:09:19;;;;;;;2.50;2.30;;;18.80;99.90;;;;;;6129973;23;20372;-90
2021/09/11 01:12:05;;;;;;;2.92;2.20;;;18.70;99.90;;;;;;6128881;23;20385;-90
2021/09/11 01:14:49;;;;;;;2.50;2.30;;;18.70;99.90;;;;;;6130582;23;20379;-92
2021/09/11 01:17:34;;;;;;;2.28;2.00;;;18.70;99.90;;;;;;6130128;23;20446;-89
2021/09/11 01:20:19;;;;;;;2.40;2.22;;;18.70;99.90;;;;;;6130356;23;20396;-91
2021/09/11 01:23:03;;;;;;;3.30;2.55;;;18.60;99.90;;;;;;6129614;23;20849;-93
2021/09/11 01:25:48;;;;;;;2.70;2.50;;;18.60;99.90;;;;;;6130713;23;20414;-93
2021/09/11 01:28:32;;;;;;;2.80;2.58;;;18.60;99.90;;;;;;6130295;23;20372;-92
2021/09/11 01:31:16;;;;;;;2.55;2.35;;;18.60;99.90;;;;;;6150505;23;21042;-92
2021/09/11 01:34:00;;;;;;;3.00;2.80;;;18.50;99.90;;;;;;6110285;23;20404;-92
2021/09/11 01:36:45;;;;;;;2.08;1.95;;;18.50;99.90;;;;;;6129321;23;20417;-90
2021/09/11 01:39:29;;;;;;;3.15;2.90;;;18.40;99.90;;;;;;6130377;23;20408;-90
2021/09/11 01:42:21;;;;;;;2.70;2.50;;;18.40;99.90;;;;;;6129799;23;20400;-90
2021/09/11 01:45:09;;;;;;;2.67;2.43;;;18.40;99.90;;;;;;6126082;23;20398;-92
2021/09/11 01:47:54;;;;;;;2.63;2.42;;;18.40;99.90;;;;;;6130632;23;20376;-93
2021/09/11 01:50:38;;;;;;;2.63;2.42;;;18.30;99.90;;;;;;6109651;23;20413;-92
2021/09/11 01:53:22;;;;;;;2.60;2.38;;;18.30;99.90;;;;;;6132683;23;20384;-92
2021/09/11 01:56:07;;;;;;;2.42;2.22;;;18.30;99.90;;;;;;6131777;23;20404;-91
2021/09/11 01:58:51;;;;;;;2.97;2.47;;;18.30;99.90;;;;;;6131660;23;20377;-92
2021/09/11 02:01:35;;;;;;;2.38;2.28;;;18.40;99.90;;;;;;6132180;23;20364;-89
2021/09/11 02:04:20;;;;;;;2.10;2.00;;;18.30;99.90;;;;;;6112568;23;20407;-93
2021/09/11 02:07:04;;;;;;;2.40;2.20;;;18.30;99.90;;;;;;6132527;23;20407;-90
2021/09/11 02:09:49;;;;;;;2.85;2.65;;;18.30;99.90;;;;;;6152253;23;20380;-90
2021/09/11 02:12:34;;;;;;;2.53;2.33;;;18.20;99.90;;;;;;6134122;23;20404;-93
2021/09/11 02:15:18;;;;;;;2.55;2.35;;;18.30;99.90;;;;;;6133291;23;20369;-93
2021/09/11 02:18:02;;;;;;;2.83;2.63;;;18.20;99.90;;;;;;6134675;23;20392;-93
2021/09/11 02:20:48;;;;;;;3.00;2.80;;;18.20;99.90;;;;;;6114029;23;20376;-89
2021/09/11 02:23:32;;;;;;;2.55;2.38;;;18.20;99.90;;;;;;6133474;23;20458;-93
2021/09/11 02:26:17;;;;;;;2.88;2.67;;;18.10;99.90;;;;;;6154197;23;20426;-90
2021/09/11 02:29:02;;;;;;;3.40;3.10;;;18.10;99.90;;;;;;6133465;23;20361;-91
2021/09/11 02:31:46;;;;;;;3.22;2.97;;;18.10;99.90;;;;;;6133087;23;20445;-94
2021/09/11 02:34:31;;;;;;;3.15;2.85;;;18.10;99.90;;;;;;6153228;23;20368;-90
2021/09/11 02:37:15;;;;;;;3.40;3.00;;;18.10;99.90;;;;;;6133366;23;20376;-89
2021/09/11 02:40:00;;;;;;;3.78;2.72;;;18.10;99.90;;;;;;6135331;23;20385;-90
2021/09/11 02:42:44;;;;;;;2.80;2.60;;;18.10;99.90;;;;;;6136080;23;20380;-91
2021/09/11 02:45:28;;;;;;;2.70;2.50;;;18.00;99.90;;;;;;6135535;23;20380;-93
2021/09/11 02:48:13;;;;;;;2.60;2.20;;;18.10;99.90;;;;;;6114105;23;20412;-88
2021/09/11 02:50:57;;;;;;;2.45;2.25;;;18.00;99.90;;;;;;6134125;23;20383;-90
2021/09/11 02:53:42;;;;;;;3.00;2.80;;;18.00;99.90;;;;;;6135193;23;20472;-90
2021/09/11 02:56:26;;;;;;;2.67;2.47;;;18.00;99.90;;;;;;6134380;23;20421;-92
2021/09/11 02:59:11;;;;;;;3.20;2.90;;;18.00;99.90;;;;;;6133754;23;20396;-92
2021/09/11 03:01:55;;;;;;;3.60;3.22;;;18.00;99.90;;;;;;6135955;23;20376;-93
2021/09/11 03:04:40;;;;;;;3.67;3.30;;;17.90;99.90;;;;;;6154474;23;20452;-90
2021/09/11 03:07:24;;;;;;;3.63;3.33;;;18.00;99.90;;;;;;6135256;23;20368;-90
2021/09/11 03:10:09;;;;;;;2.60;2.40;;;17.90;99.90;;;;;;6114313;23;20404;-91
2021/09/11 03:12:53;;;;;;;2.67;2.47;;;17.90;99.90;;;;;;6130344;23;20429;-93
2021/09/11 03:15:38;;;;;;;3.00;2.80;;;17.90;99.90;;;;;;6135658;23;20373;-91
2021/09/11 03:18:22;;;;;;;2.80;2.60;;;17.90;99.90;;;;;;6134164;23;20364;-92
2021/09/11 03:21:06;;;;;;;3.15;2.85;;;17.90;99.90;;;;;;6114631;23;20408;-93
2021/09/11 03:23:51;;;;;;;2.80;2.60;;;17.90;99.90;;;;;;6133645;23;20380;-89
2021/09/11 03:26:35;;;;;;;2.60;2.40;;;17.90;99.90;;;;;;6134652;23;20360;-91
2021/09/11 03:29:20;;;;;;;3.42;2.83;;;17.90;99.90;;;;;;6133730;23;20392;-93
2021/09/11 03:32:05;;;;;;;4.13;3.75;;;17.90;99.90;;;;;;6133704;23;20383;-93
2021/09/11 03:34:49;;;;;;;3.33;3.13;;;17.80;99.90;;;;;;6114994;23;20384;-89
2021/09/11 03:37:33;;;;;;;2.85;2.65;;;17.80;99.90;;;;;;6134347;23;20845;-92
2021/09/11 03:40:18;;;;;;;3.75;2.97;;;17.80;99.90;;;;;;6153811;23;20424;-91
2021/09/11 03:43:02;;;;;;;2.85;2.28;;;17.70;99.90;;;;;;6134291;23;20364;-91
2021/09/11 03:45:47;;;;;;;2.60;2.40;;;17.80;99.90;;;;;;6138258;23;20380;-90
2021/09/11 03:48:31;;;;;;;2.50;2.30;;;17.80;99.90;;;;;;6137605;23;20379;-91
2021/09/11 03:51:15;;;;;;;3.47;3.17;;;17.80;99.90;;;;;;6137264;23;20908;-92
2021/09/11 03:54:01;;;;;;;2.60;2.40;;;17.80;99.90;;;;;;6137442;23;20380;-89
2021/09/11 03:56:45;;;;;;;3.70;3.40;;;17.70;99.90;;;;;;6139055;23;20472;-92
2021/09/11 03:59:30;;;;;;;3.20;2.90;;;17.70;99.90;;;;;;6136860;23;20372;-90
2021/09/11 04:02:14;;;;;;;3.47;3.17;;;17.70;99.90;;;;;;6118483;23;20372;-91
2021/09/11 04:04:59;;;;;;;3.55;3.13;;;17.60;99.90;;;;;;6117197;23;20377;-94
2021/09/11 04:07:43;;;;;;;3.20;2.92;;;17.60;99.90;;;;;;6137535;23;20349;-91
2021/09/11 04:10:27;;;;;;;3.05;2.85;;;17.70;99.90;;;;;;6135768;23;20474;-89
2021/09/11 04:13:12;;;;;;;3.38;3.10;;;17.60;99.90;;;;;;6115309;23;20424;-89
2021/09/11 04:15:56;;;;;;;3.58;3.28;;;17.60;99.90;;;;;;6136174;23;20388;-89
2021/09/11 04:18:41;;;;;;;3.90;3.23;;;17.60;99.90;;;;;;6156507;23;20377;-88
2021/09/11 04:21:25;;;;;;;3.07;2.87;;;17.60;99.90;;;;;;6134616;23;20389;-90
2021/09/11 04:24:09;;;;;;;3.90;3.60;;;17.60;99.90;;;;;;6113042;23;20399;-90
2021/09/11 04:26:54;;;;;;;3.22;2.95;;;17.60;99.90;;;;;;6135247;23;21097;-90
2021/09/11 04:29:38;;;;;;;4.30;3.90;;;17.80;99.90;;;;;;6135982;23;20384;-90
2021/09/11 04:32:22;;;;;;;3.08;2.83;;;17.60;99.90;;;;;;6135686;23;20360;-90
2021/09/11 04:35:07;;;;;;;3.15;2.95;;;17.50;99.90;;;;;;6136512;23;20783;-93
2021/09/11 04:37:51;;;;;;;3.95;3.58;;;17.50;99.90;;;;;;6116567;23;20369;-87
2021/09/11 04:40:36;;;;;;;5.40;3.42;;;17.50;99.90;;;;;;6135902;23;20439;-90
2021/09/11 04:43:20;;;;;;;3.72;3.42;;;17.50;99.90;;;;;;6115127;23;20367;-89
2021/09/11 04:46:05;;;;;;;4.13;3.72;;;17.50;99.90;;;;;;6135933;23;20422;-91
2021/09/11 04:48:49;;;;;;;4.38;3.40;;;17.40;99.90;;;;;;6135182;23;20352;-90
2021/09/11 04:51:34;;;;;;;3.42;3.13;;;17.40;99.90;;;;;;6134813;23;20404;-90
2021/09/11 04:54:18;;;;;;;3.70;3.40;;;17.50;99.90;;;;;;6132886;23;20415;-89
2021/09/11 04:57:03;;;;;;;3.22;2.90;;;17.50;99.90;;;;;;6135494;23;20437;-91
2021/09/11 04:59:48;;;;;;;3.70;3.40;;;17.50;99.90;;;;;;6135631;23;20877;-91
2021/09/11 05:02:32;;;;;;;3.53;3.20;;;17.50;99.90;;;;;;6134619;23;20377;-88
2021/09/11 05:05:17;;;;;;;3.08;2.88;;;17.50;99.90;;;;;;6133828;23;20380;-88
2021/09/11 05:08:01;;;;;;;2.85;2.65;;;17.60;99.90;;;;;;6135055;23;20415;-89
2021/09/11 05:10:45;;;;;;;3.00;2.80;;;17.60;99.90;;;;;;6135606;23;20370;-89
2021/09/11 05:13:30;;;;;;;3.10;2.90;;;17.70;99.90;;;;;;6135645;23;20408;-91
2021/09/11 05:16:14;;;;;;;3.35;3.05;;;17.70;99.90;;;;;;6134927;23;20396;-91
2021/09/11 05:18:58;;;;;;;2.70;2.50;;;17.70;99.90;;;;;;6133813;23;20433;-90
2021/09/11 05:21:43;;;;;;;3.30;3.00;;;17.60;99.90;;;;;;6136676;23;20439;-91
2021/09/11 05:24:27;;;;;;;3.67;3.03;;;17.70;99.90;;;;;;6134025;23;20376;-91
2021/09/11 05:27:12;;;;;;;3.78;3.47;;;17.70;99.90;;;;;;6136188;23;20365;-92
2021/09/11 05:29:56;;;;;;;3.40;3.20;;;17.70;99.90;;;;;;6135624;23;20373;-90
2021/09/11 05:32:41;;;;;;;2.95;2.75;;;17.70;99.90;;;;;;6135002;23;20786;-90
2021/09/11 05:35:25;;;;;;;3.50;3.20;;;17.70;99.90;;;;;;6135324;23;20372;-90
2021/09/11 05:38:10;;;;;;;2.70;2.50;;;17.70;99.90;;;;;;6136593;23;20431;-92
2021/09/11 05:40:54;;;;;;;3.88;3.55;;;17.80;99.90;;;;;;6134635;23;20384;-89
2021/09/11 05:43:38;;;;;;;2.80;2.60;;;17.80;99.90;;;;;;6136077;23;20365;-93
2021/09/11 05:46:23;;;;;;;3.40;3.10;;;17.90;99.90;;;;;;6157103;23;20376;-90
2021/09/11 05:49:07;;;;;;;4.68;3.30;;;17.90;99.90;;;;;;6135892;23;20408;-88
2021/09/11 05:51:52;;;;;;;3.33;3.03;;;17.80;99.90;;;;;;6136527;23;20384;-92
2021/09/11 05:54:36;;;;;;;4.25;2.90;;;17.90;99.90;;;;;;6155944;23;20421;-90
2021/09/11 05:57:21;;;;;;;3.60;3.30;;;17.80;99.90;;;;;;6135104;23;20380;-91
2021/09/11 06:00:06;;;;;;;3.22;3.03;;;17.90;99.90;;;;;;6136027;23;20384;-90
2021/09/11 06:02:56;;;;;;;2.80;2.60;;;17.90;99.90;;;;;;6135014;23;20434;-90
2021/09/11 06:05:40;;;;;;;3.58;3.33;;;17.90;99.90;;;;;;6137250;23;20502;-92
2021/09/11 06:08:25;;;;;;;3.97;3.45;;;17.90;99.90;;;;;;6145328;23;20371;-90
2021/09/11 06:11:09;;;;;;;3.60;3.30;;;17.80;99.90;;;;;;6145207;23;20402;-91
2021/09/11 06:13:53;;;;;;;3.10;2.90;;;17.90;99.90;;;;;;6144345;23;20646;-90
2021/09/11 06:16:38;;;;;;;4.28;3.88;;;17.90;99.90;;;;;;6166423;23;20366;-90
2021/09/11 06:19:22;;;;;;;4.30;3.90;;;17.90;99.90;;;;;;6166554;23;20378;-91
2021/09/11 06:22:09;;;;;;;3.42;3.10;;;17.90;99.90;;;;;;6168468;23;20370;-92
2021/09/11 06:24:53;;;;;;;2.92;2.72;;;17.90;99.90;;;;;;6189477;23;20439;-93
2021/09/11 06:27:38;;;;;;;3.22;3.03;;;17.90;99.90;;;;;;6147392;23;20420;-90
2021/09/11 06:30:23;;;;;;;3.87;3.50;;;17.90;99.90;;;;;;6146115;23;20391;-93
2021/09/11 06:33:07;;;;;;;3.10;2.90;;;17.90;99.90;;;;;;6167067;23;20367;-90
2021/09/11 06:35:52;;;;;;;3.10;2.80;;;17.90;99.90;;;;;;6147026;23;20455;-91
2021/09/11 06:38:36;;;;;;;4.30;3.90;;;17.90;99.90;;;;;;6146656;23;20362;-92
2021/09/11 06:41:21;;;;;;;3.13;2.92;;;17.90;99.90;;;;;;6147968;23;20394;-89
2021/09/11 06:44:05;;;;;;;3.80;3.33;;;17.90;99.90;;;;;;6145837;23;20415;-89
2021/09/11 06:46:50;;;;;;;3.35;3.10;;;18.00;99.90;;;;;;6165305;23;20363;-89
2021/09/11 06:49:34;;;;;;;3.90;3.50;;;18.00;99.90;;;;;;6186094;23;20423;-86
2021/09/11 06:52:20;;;;;;;4.32;3.92;;;18.10;99.90;;;;;;6144870;23;20366;-85
2021/09/11 06:55:05;;;;;;;3.97;3.67;;;18.20;99.90;;;;;;6144164;23;20371;-90
2021/09/11 06:57:49;;;;;;;4.23;3.87;;;18.20;99.90;;;;;;6146051;23;20369;-89
2021/09/11 07:00:34;;;;;;;4.50;3.83;;;18.20;99.90;;;;;;6149855;22;20405;-92
2021/09/11 07:03:18;;;;;;;3.50;3.20;;;18.30;99.90;;;;;;6171018;22;20383;-92
2021/09/11 07:06:04;;;;;;;3.63;3.33;;;18.50;99.90;;;;;;6142529;23;20375;-87
2021/09/11 07:08:49;;;;;;;3.57;3.30;;;18.70;99.90;;;;;;6186598;23;20378;-87
2021/09/11 07:11:33;;;;;;;3.40;3.10;;;18.80;99.90;;;;;;6184338;23;20402;-85
2021/09/11 07:14:17;;;;;;;4.40;3.88;;;19.00;99.90;;;;;;6183851;23;20394;-87
2021/09/11 07:17:01;;;;;;;3.85;3.55;;;19.10;99.90;;;;;;6185178;23;20371;-87
2021/09/11 07:19:46;;;;;;;3.85;3.55;;;19.10;99.90;;;;;;6142497;23;20367;-90
2021/09/11 07:22:30;;;;;;;5.20;3.40;;;19.10;99.90;;;;;;6144067;23;20383;-89
2021/09/11 07:25:14;;;;;;;4.20;3.83;;;19.20;99.90;;;;;;6164309;23;20403;-88
2021/09/11 07:27:59;;;;;;;3.40;3.10;;;19.20;99.90;;;;;;6144277;23;20395;-88
2021/09/11 07:30:43;;;;;;;3.92;3.63;;;19.40;99.90;;;;;;6143475;23;20387;-88
2021/09/11 07:33:28;;;;;;;4.93;4.53;;;19.40;99.90;;;;;;6142616;23;20367;-90
2021/09/11 07:36:12;;;;;;;4.60;4.20;;;19.50;99.90;;;;;;6142612;23;20386;-89
2021/09/11 07:38:56;;;;;;;3.50;3.20;;;19.60;99.90;;;;;;6140273;23;20431;-81
2021/09/11 07:41:40;;;;;;;4.75;4.35;;;19.60;99.90;;;;;;6181597;23;20491;-87
2021/09/11 07:44:25;;;;;;;3.90;3.60;;;19.70;99.90;;;;;;6168236;23;20365;-90
2021/09/11 07:47:10;;;;;;;3.03;2.80;;;19.50;99.90;;;;;;6147028;23;20480;-88
2021/09/11 07:49:54;;;;;;;3.40;3.20;;;19.70;99.90;;;;;;6190483;22;20394;-91
2021/09/11 07:52:39;;;;;;;3.53;3.22;;;19.90;99.90;;;;;;6169461;22;20434;-93
2021/09/11 07:55:23;;;;;;;3.25;2.95;;;19.90;99.90;;;;;;6147458;22;20382;-91
2021/09/11 07:58:07;;;;;;;3.67;3.38;;;20.00;99.90;;;;;;6150921;22;20417;-93
2021/09/11 08:00:54;;;;;;;3.47;3.22;;;20.10;99.90;;;;;;6149534;23;20359;-91
2021/09/11 08:03:38;;;;;;;5.28;3.90;;;20.30;99.90;;;;;;6151012;22;20455;-92
2021/09/11 08:06:22;;;;;;;3.53;3.22;;;20.30;99.90;;;;;;6169261;22;20424;-93
2021/09/11 08:09:07;;;;;;;4.43;3.78;;;20.50;99.90;;;;;;6148010;23;20422;-91
2021/09/11 08:11:51;;;;;;;3.38;3.13;;;20.60;99.90;;;;;;6149326;22;20367;-92
2021/09/11 08:14:35;;;;;;;3.25;3.05;;;20.70;99.90;;;;;;6149558;22;20371;-91
2021/09/11 08:17:20;;;;;;;4.50;4.03;;;20.80;99.90;;;;;;6146953;22;20738;-91
2021/09/11 08:20:05;;;;;;;3.75;3.35;;;20.90;99.90;;;;;;6146512;23;20370;-91
2021/09/11 08:22:49;;;;;;;3.15;2.90;;;20.90;99.90;;;;;;6147717;22;20452;-90
2021/09/11 08:25:34;;;;;;;3.35;3.15;;;20.90;99.90;;;;;;6145055;23;20354;-91
2021/09/11 08:28:18;;;;;;;4.10;3.70;;;21.00;99.90;;;;;;6164686;22;20382;-91
2021/09/11 08:31:02;;;;;;;3.43;3.13;;;21.10;99.90;;;;;;6171467;22;20418;-92
2021/09/11 08:33:47;;;;;;;4.10;3.70;;;21.10;99.90;;;;;;6149268;22;20402;-91
2021/09/11 08:36:31;;;;;;;3.35;3.15;;;21.10;99.90;;;;;;6149257;22;20443;-92
2021/09/11 08:39:16;;;;;;;4.38;3.97;;;21.20;99.90;;;;;;6150075;22;20357;-91
2021/09/11 08:42:02;;;;;;;2.70;2.50;;;21.30;99.90;;;;;;6150525;22;20399;-92
2021/09/11 08:44:47;;;;;;;3.40;3.10;;;21.40;99.90;;;;;;6147992;23;20371;-92
2021/09/11 08:47:31;;;;;;;3.60;3.40;;;21.40;99.90;;;;;;6148070;23;20363;-92
2021/09/11 08:50:19;;;;;;;3.63;3.33;;;21.30;99.90;;;;;;6187562;22;20363;-90
2021/09/11 08:53:03;;;;;;;4.07;3.70;;;21.30;99.90;;;;;;6168759;22;20483;-90
2021/09/11 08:55:48;;;;;;;3.65;3.15;;;21.30;99.90;;;;;;6147856;22;20375;-92
2021/09/11 08:58:32;;;;;;;3.72;3.42;;;21.30;99.90;;;;;;6150325;22;20371;-91
2021/09/11 09:01:17;;;;;;;3.72;3.42;;;21.40;99.90;;;;;;6151246;22;20371;-93
2021/09/11 09:04:01;;;;;;;3.10;2.83;;;21.60;99.90;;;;;;6147818;22;20362;-91
2021/09/11 09:06:47;;;;;;;2.95;2.75;;;21.70;99.90;;;;;;6121934;23;20409;-92
2021/09/11 09:09:38;;;;;;;2.95;2.67;;;21.90;99.90;;;;;;6143867;23;20395;-92
2021/09/11 09:12:22;;;;;;;3.63;2.90;;;22.20;99.90;;;;;;6144085;23;20372;-92
2021/09/11 10:52:08;;;;;;;1.73;1.63;;;26.40;99.90;;;;;;6254714;23;20447;-92
2021/09/11 10:54:53;;;;;;;1.70;1.60;;;26.50;99.90;;;;;;6231216;23;20404;-89
2021/09/11 10:57:42;;;;;;;1.70;1.60;;;26.70;99.90;;;;;;6214000;23;20384;-89
2021/09/11 11:00:32;;;;;;;1.52;1.42;;;26.80;99.90;;;;;;6195253;23;20408;-91
2021/09/11 11:03:17;;;;;;;1.80;1.70;;;26.70;99.90;;;;;;6172751;23;20392;-87
2021/09/11 11:06:03;;;;;;;1.50;1.40;;;26.80;99.90;;;;;;6193369;23;20434;-91
2021/09/11 11:08:49;;;;;;;1.88;1.77;;;26.60;99.90;;;;;;6194416;23;20365;-90
2021/09/11 11:11:36;;;;;;;1.55;1.45;;;26.60;99.90;;;;;;6194578;23;20404;-90
2021/09/11 11:14:21;;;;;;;1.50;1.40;;;26.60;99.90;;;;;;6173019;23;20436;-93
2021/09/11 11:17:07;;;;;;;1.60;1.50;;;26.50;99.90;;;;;;6194277;23;20501;-92
2021/09/11 11:19:53;;;;;;;1.50;1.40;;;26.50;99.90;;;;;;6192574;23;20401;-90
2021/09/11 11:22:40;;;;;;;1.88;1.70;;;26.70;99.90;;;;;;6193542;23;20372;-91
2021/09/11 11:25:35;;;;;;;1.60;1.50;;;26.50;99.90;;;;;;6192983;23;20377;-92
2021/09/11 11:28:19;;;;;;;1.30;1.20;;;26.30;99.90;;;;;;6194626;23;20368;-92
2021/09/11 11:31:04;;;;;;;1.67;1.58;;;26.40;99.90;;;;;;6192971;23;20392;-92
2021/09/11 11:33:49;;;;;;;1.50;1.40;;;26.30;99.90;;;;;;6193917;23;20896;-91
2021/09/11 11:36:35;;;;;;;1.88;1.77;;;26.50;99.90;;;;;;6172184;23;20395;-92
2021/09/11 11:39:31;;;;;;;1.83;1.73;;;26.80;99.90;;;;;;6195217;23;20396;-91
2021/09/11 11:42:21;;;;;;;1.52;1.42;;;27.10;99.90;;;;;;6194789;23;20369;-90
2021/09/11 11:45:11;;;;;;;1.50;1.40;;;27.50;99.90;;;;;;6219994;23;20376;-92
2021/09/11 11:48:08;;;;;;;1.50;1.40;;;27.60;99.90;;;;;;6203282;23;20397;-88
2021/09/11 11:51:03;;;;;;;1.70;1.60;;;27.60;99.90;;;;;;6219702;23;20420;-91
2021/09/11 11:53:50;;;;;;;1.60;1.50;;;27.30;99.90;;;;;;6218692;23;20388;-88
2021/09/11 11:56:50;;;;;;;1.77;1.67;;;27.30;99.90;;;;;;6198374;23;20370;-88
2021/09/11 11:59:36;;;;;;;1.60;1.50;;;27.10;99.90;;;;;;6215971;23;20493;-92
2021/09/11 12:02:31;;;;;;;1.20;1.20;;;27.00;99.90;;;;;;6217184;23;20434;-91
2021/09/11 12:05:17;;;;;;;1.70;1.60;;;27.00;99.90;;;;;;6194957;23;20365;-91
2021/09/11 12:08:05;;;;;;;1.42;1.33;;;27.10;99.90;;;;;;6215207;23;20373;-90
2021/09/11 12:10:53;;;;;;;1.70;1.60;;;27.00;99.90;;;;;;6174760;23;20405;-92
2021/09/11 12:13:40;;;;;;;1.75;1.65;;;27.10;99.90;;;;;;6195212;23;20420;-89
2021/09/11 12:16:32;;;;;;;1.75;1.65;;;27.20;99.90;;;;;;6237793;23;20366;-90
2021/09/11 12:19:24;;;;;;;1.70;1.60;;;27.20;99.90;;;;;;6198695;23;20377;-89
2021/09/11 12:22:18;;;;;;;1.67;1.58;;;27.40;99.90;;;;;;6217818;23;20421;-90
2021/09/11 12:25:07;;;;;;;2.17;2.08;;;27.40;99.90;;;;;;6197186;23;21044;-92
2021/09/11 12:27:55;;;;;;;1.55;1.45;;;27.30;99.90;;;;;;6195708;23;20397;-91
2021/09/11 12:30:51;;;;;;;1.90;1.80;;;27.30;99.90;;;;;;6216901;23;20798;-93
2021/09/11 12:33:53;;;;;;;1.58;1.48;;;27.10;99.90;;;;;;6193415;23;20441;-90
2021/09/11 12:36:39;;;;;;;1.67;1.58;;;26.90;99.90;;;;;;6195179;23;20373;-89
2021/09/11 12:39:28;;;;;;;1.58;1.48;;;26.80;99.90;;;;;;6195906;23;20874;-90
2021/09/11 12:42:14;;;;;;;1.45;1.35;;;26.80;99.90;;;;;;6193599;23;20405;-92
2021/09/11 12:45:00;;;;;;;1.48;1.38;;;26.90;99.90;;;;;;6174324;23;20373;-90
2021/09/11 12:47:46;;;;;;;1.57;1.47;;;26.90;99.90;;;;;;6195133;23;20368;-91
2021/09/11 12:50:31;;;;;;;1.80;1.70;;;26.80;99.90;;;;;;6195101;23;20416;-91
2021/09/11 12:53:16;;;;;;;1.50;1.40;;;26.70;99.90;;;;;;6193935;23;20377;-90
2021/09/11 12:56:01;;;;;;;1.40;1.40;;;26.70;99.90;;;;;;6174115;23;20374;-91
2021/09/11 12:58:46;;;;;;;2.03;1.83;;;26.50;99.90;;;;;;6193729;23;20369;-90
2021/09/11 13:01:35;;;;;;;2.10;1.90;;;26.30;99.90;;;;;;6196013;23;20415;-90
2021/09/11 13:04:21;;;;;;;3.77;2.47;;;26.40;99.90;;;;;;6174492;23;20417;-91
2021/09/11 13:07:05;;;;;;;2.20;1.90;;;26.10;99.90;;;;;;6171585;23;20535;-91
2021/09/11 13:09:50;;;;;;;1.80;1.70;;;26.10;99.90;;;;;;6188954;23;20412;-86
2021/09/11 13:12:34;;;;;;;2.40;2.20;;;26.10;99.90;;;;;;6168489;23;20482;-85
2021/09/11 13:15:19;;;;;;;1.90;1.80;;;25.90;99.90;;;;;;6187994;23;20373;-88
2021/09/11 13:18:03;;;;;;;1.90;1.80;;;25.80;99.90;;;;;;6169806;23;20377;-88
2021/09/11 13:20:48;;;;;;;3.20;2.65;;;25.70;99.90;;;;;;6168249;23;20380;-85
2021/09/11 13:23:32;;;;;;;1.85;1.75;;;25.70;99.90;;;;;;6186788;23;20377;-88
2021/09/11 13:26:19;;;;;;;1.92;1.80;;;25.80;99.90;;;;;;6188254;23;20427;-90
2021/09/11 13:29:03;;;;;;;1.60;1.50;;;25.80;99.90;;;;;;6169756;23;20384;-88
2021/09/11 13:31:48;;;;;;;1.77;1.67;;;25.90;99.90;;;;;;6191359;23;20377;-88
2021/09/11 13:34:32;;;;;;;1.90;1.80;;;26.00;99.90;;;;;;6191115;23;20377;-91
2021/09/11 13:37:17;;;;;;;2.60;2.40;;;26.10;99.90;;;;;;6193856;23;20369;-89
2021/09/11 13:40:01;;;;;;;2.10;1.90;;;26.10;99.90;;;;;;6193436;23;20433;-87
2021/09/11 13:42:46;;;;;;;1.97;1.87;;;26.20;99.90;;;;;;5062521;23;10000992;-89
2021/09/11 13:45:31;;;;;;;1.77;1.67;;;26.20;99.90;;;;;;6194068;23;20391;-91
2021/09/11 13:48:16;;;;;;;2.30;2.10;;;26.30;99.90;;;;;;6203604;23;20394;-91
2021/09/11 13:51:01;;;;;;;1.90;1.80;;;26.30;99.90;;;;;;6163231;23;20367;-89
2021/09/11 13:53:45;;;;;;;1.83;1.73;;;26.30;99.90;;;;;;6163501;23;20881;-89
2021/09/11 13:56:31;;;;;;;1.80;1.67;;;26.30;99.90;;;;;;6163661;23;20396;-91
2021/09/11 13:59:15;;;;;;;2.17;2.08;;;26.20;99.90;;;;;;6204165;23;20751;-84
2021/09/11 14:02:02;;;;;;;2.03;1.92;;;26.10;99.90;;;;;;6163406;23;25651;-86
2021/09/11 14:04:46;;;;;;;1.75;1.65;;;26.10;99.90;;;;;;6142414;23;20374;-89
2021/09/11 14:07:31;;;;;;;2.40;2.22;;;26.10;99.90;;;;;;6161784;23;20390;-90
2021/09/11 14:10:18;;;;;;;2.40;2.20;;;25.90;99.90;;;;;;6161176;23;20391;-90
2021/09/11 14:13:02;;;;;;;1.92;1.83;;;25.90;99.90;;;;;;6142022;23;20394;-89
2021/09/11 14:15:47;;;;;;;1.83;1.73;;;25.80;99.90;;;;;;6163234;23;20371;-89
2021/09/11 14:18:32;;;;;;;2.37;2.07;;;26.00;99.90;;;;;;6160799;23;20367;-90
2021/09/11 14:21:18;;;;;;;2.45;2.33;;;26.50;99.90;;;;;;6187117;23;20371;-89
2021/09/11 14:24:07;;;;;;;2.13;2.00;;;27.30;99.90;;;;;;6188663;23;20778;-83
2021/09/11 14:26:57;;;;;;;2.30;2.10;;;27.90;99.90;;;;;;6214936;23;20350;-87
2021/09/11 14:29:50;;;;;;;2.35;2.15;;;28.10;99.90;;;;;;6190933;22;20373;-79
2021/09/11 14:33:09;;;;;;;2.05;1.92;;;28.60;99.90;;;;;;6204018;23;20369;-82
2021/09/11 14:52:49;;;;;;;1.90;1.80;;;28.50;99.90;;;;;;6138780;23;20408;-81
2021/09/11 14:55:52;;;;;;;2.58;2.38;;;28.10;99.90;;;;;;6166393;23;20400;-86
2021/09/11 14:58:42;;;;;;;1.90;1.80;;;27.90;99.90;;;;;;6196142;23;20368;-87
2021/09/11 15:01:44;;;;;;;2.13;2.03;;;27.80;99.90;;;;;;6173906;23;20384;-83
2021/09/11 15:04:31;;;;;;;1.90;1.80;;;27.70;99.90;;;;;;6145955;23;20388;-86
2021/09/11 15:07:19;;;;;;;2.10;2.00;;;27.60;99.90;;;;;;6180489;23;20396;-88
2021/09/11 15:10:08;;;;;;;2.03;1.85;;;27.40;99.90;;;;;;6156732;23;20365;-87
2021/09/11 15:12:54;;;;;;;2.10;2.00;;;27.20;99.90;;;;;;6176231;23;20400;-87
2021/09/11 15:15:38;;;;;;;1.60;1.50;;;26.90;99.90;;;;;;6173672;23;20372;-88
2021/09/11 15:18:22;;;;;;;2.20;2.00;;;26.70;99.90;;;;;;6169768;23;20363;-85
2021/09/11 15:21:07;;;;;;;1.92;1.83;;;26.60;99.90;;;;;;6170317;23;20368;-89
2021/09/11 15:23:51;;;;;;;1.70;1.60;;;26.60;99.90;;;;;;6174696;23;20380;-89
2021/09/11 15:26:36;;;;;;;1.80;1.70;;;26.50;99.90;;;;;;6174904;23;20368;-90
2021/09/11 15:29:20;;;;;;;1.52;1.42;;;26.40;99.90;;;;;;6171555;23;20368;-89
2021/09/11 15:32:05;;;;;;;2.40;2.20;;;26.30;99.90;;;;;;6168293;23;20392;-84
2021/09/11 15:34:51;;;;;;;2.10;2.00;;;26.10;99.90;;;;;;6169310;23;20396;-85
2021/09/11 15:37:36;;;;;;;1.67;1.50;;;25.90;99.90;;;;;;6181991;23;20862;-90
2021/09/11 15:40:22;;;;;;;1.70;1.60;;;25.80;99.90;;;;;;6163093;23;20360;-90
2021/09/11 15:43:06;;;;;;;1.90;1.80;;;25.60;99.90;;;;;;6172112;23;20423;-90
2021/09/11 15:45:53;;;;;;;1.70;1.60;;;25.50;99.90;;;;;;6167699;23;20758;-89
2021/09/11 15:48:38;;;;;;;2.47;2.33;;;25.40;99.90;;;;;;6150561;23;20396;-86
2021/09/11 15:51:22;;;;;;;2.00;1.90;;;25.30;99.90;;;;;;6153182;23;20602;-90
2021/09/11 15:54:07;;;;;;;1.70;1.60;;;25.10;99.90;;;;;;6136217;23;20389;-88
2021/09/11 15:56:51;;;;;;;2.00;1.90;;;25.10;99.90;;;;;;6155991;23;20434;-87
2021/09/11 15:59:36;;;;;;;1.90;1.80;;;25.00;99.90;;;;;;6136973;23;20413;-86
2021/09/11 16:02:20;;;;;;;1.70;1.60;;;24.80;99.90;;;;;;6137243;23;20363;-89
2021/09/11 16:05:06;;;;;;;2.83;2.53;;;24.80;99.90;;;;;;6135536;23;20381;-82
2021/09/11 16:07:50;;;;;;;2.15;2.05;;;24.80;99.90;;;;;;6136896;23;20400;-83
2021/09/11 16:10:35;;;;;;;2.60;2.40;;;24.80;99.90;;;;;;6138535;23;20449;-87
2021/09/11 16:13:19;;;;;;;1.50;1.40;;;24.00;99.90;;;;;;6137390;23;20344;-84